createdAt,value
2019-05-02T00:03:43.125Z,956.7
2019-05-02T00:13:46.480Z,956.8
2019-05-02T00:23:49.809Z,956.6
2019-05-02T00:33:53.153Z,956.6
2019-05-02T00:43:56.492Z,956.7
2019-05-02T00:53:59.829Z,956.8
2019-05-02T01:04:03.183Z,956.7
2019-05-02T01:14:06.517Z,956.8
2019-05-02T01:24:09.832Z,956.8
2019-05-02T01:34:19.493Z,956.8
2019-05-02T01:44:22.850Z,956.8
2019-05-02T01:54:26.173Z,956.8
2019-05-02T02:04:29.509Z,956.8
2019-05-02T02:14:32.851Z,956.8
2019-05-02T02:24:38.694Z,956.8
2019-05-02T02:34:42.040Z,956.7
2019-05-02T02:44:45.388Z,956.7
2019-05-02T02:54:48.743Z,956.6
2019-05-02T03:04:52.100Z,956.8
2019-05-02T03:14:55.422Z,956.7
2019-05-02T03:24:58.776Z,956.8
2019-05-02T03:35:02.480Z,956.8
2019-05-02T03:45:05.964Z,956.8
2019-05-02T03:55:09.348Z,956.9
2019-05-02T04:05:12.670Z,956.8
2019-05-02T04:15:16.030Z,956.8
2019-05-02T04:25:19.375Z,956.8
2019-05-02T04:35:36.347Z,956.9
2019-05-02T04:46:00.479Z,956.9
2019-05-02T04:56:11.112Z,957
2019-05-02T05:06:14.506Z,956.8
2019-05-02T05:16:19.037Z,956.7
2019-05-02T05:26:22.360Z,956.6
2019-05-02T05:36:34.372Z,956.7
2019-05-02T05:46:42.922Z,956.5
2019-05-02T05:56:48.355Z,956.4
2019-05-02T06:07:03.442Z,956.4
2019-05-02T06:17:06.785Z,956.6
2019-05-02T06:27:10.099Z,956.5
2019-05-02T06:37:15.689Z,956.2
2019-05-02T06:47:19.041Z,956.2
2019-05-02T06:57:26.088Z,956.1
2019-05-02T07:07:38.015Z,956
2019-05-02T07:17:41.369Z,955.7
2019-05-02T07:27:44.686Z,955.6
2019-05-02T07:37:50.278Z,955.9
2019-05-02T07:47:53.633Z,956.5
2019-05-02T07:57:56.940Z,956.2
2019-05-02T08:08:00.263Z,956.2
2019-05-02T08:18:03.606Z,956.4
2019-05-02T08:28:18.075Z,956.6
2019-05-02T08:38:21.399Z,956.5
2019-05-02T08:48:24.743Z,956.5
2019-05-02T08:58:29.088Z,956.3
2019-05-02T09:08:33.410Z,956.2
2019-05-02T09:18:54.506Z,956.1
2019-05-02T09:29:05.779Z,955.9
2019-05-02T09:39:09.116Z,955.7
2019-05-02T09:49:16.851Z,955.6
2019-05-02T09:59:33.420Z,955.5
2019-05-02T10:09:36.822Z,955.4
2019-05-02T10:19:57.358Z,955.1
2019-05-02T10:30:16.100Z,955.1
2019-05-02T10:40:19.477Z,954.8
2019-05-02T10:50:22.806Z,954.5
2019-05-02T11:00:26.141Z,954.3
2019-05-02T11:10:29.483Z,954.2
2019-05-02T11:20:32.857Z,953.9
2019-05-02T11:30:36.177Z,953.7
2019-05-02T11:40:39.514Z,953.7
2019-05-02T11:50:42.856Z,953.4
2019-05-02T12:00:52.497Z,953.4
2019-05-02T12:10:55.896Z,953.3
2019-05-02T12:20:59.240Z,953.1
2019-05-02T12:31:03.121Z,953.1
2019-05-02T12:41:25.539Z,953.1
2019-05-02T12:51:28.859Z,953.5
2019-05-02T13:01:33.486Z,953.9
2019-05-02T13:11:46.105Z,954.2
2019-05-02T13:22:01.995Z,954.4
2019-05-02T13:32:19.051Z,954.6
2019-05-02T13:42:22.375Z,954.8
2019-05-02T13:52:25.699Z,954.7
2019-05-02T14:02:29.029Z,954.7
2019-05-02T14:12:32.364Z,954.6
2019-05-02T14:22:35.690Z,954.4
2019-05-02T14:32:39.027Z,954.5
2019-05-02T14:42:42.357Z,954.9
2019-05-02T14:52:46.126Z,954.4
2019-05-02T15:02:52.091Z,954.4
2019-05-02T15:13:04.049Z,954.4
2019-05-02T15:23:20.128Z,954.4
2019-05-02T15:33:25.880Z,954.6
2019-05-02T15:43:29.201Z,954.5
2019-05-02T15:53:32.831Z,954.8
2019-05-02T16:03:46.647Z,954.6
2019-05-02T16:13:56.470Z,955
2019-05-02T16:24:15.076Z,954.7
2019-05-02T16:34:18.419Z,954.4
2019-05-02T16:44:22.590Z,954.2
2019-05-02T16:54:25.919Z,953.9
2019-05-02T17:04:29.256Z,953.9
2019-05-02T17:14:32.594Z,953.7
2019-05-02T17:24:35.897Z,953.5
2019-05-02T17:34:39.246Z,953.6
2019-05-02T17:44:44.249Z,953.5
2019-05-02T17:54:47.578Z,953.4
2019-05-02T18:04:56.142Z,953.4
2019-05-02T18:15:03.547Z,953.6
2019-05-02T18:25:06.867Z,954.1
2019-05-02T18:35:11.993Z,954.8
2019-05-02T18:45:15.335Z,954.9
2019-05-02T18:55:26.285Z,954.9
2019-05-02T19:05:29.619Z,954.9
2019-05-02T19:15:48.858Z,955
2019-05-02T19:25:53.187Z,955
2019-05-02T19:35:56.525Z,954.9
2019-05-02T19:45:59.866Z,954.8
2019-05-02T19:56:03.379Z,954.9
2019-05-02T20:06:06.737Z,954.9
2019-05-02T20:16:12.162Z,954.7
2019-05-02T20:26:17.429Z,954.7
2019-05-02T20:36:23.033Z,954.6
2019-05-02T20:46:26.373Z,954.5
2019-05-02T20:56:29.718Z,954.5
2019-05-02T21:06:44.361Z,954.5
2019-05-02T21:16:47.698Z,954.5
2019-05-02T21:26:52.871Z,954.6
2019-05-02T21:36:56.204Z,954.6
2019-05-02T21:46:59.507Z,954.9
2019-05-02T21:57:02.957Z,954.9
2019-05-02T22:07:06.285Z,955
2019-05-02T22:17:09.621Z,955
2019-05-02T22:27:12.984Z,955
2019-05-02T22:37:16.321Z,955.1
2019-05-02T22:47:19.648Z,955.1
2019-05-02T22:57:22.992Z,955
2019-05-02T23:07:26.337Z,955
2019-05-02T23:17:29.661Z,955
2019-05-02T23:27:33.002Z,954.9
2019-05-02T23:37:36.344Z,954.9
2019-05-02T23:47:39.702Z,954.9
2019-05-02T23:57:43.043Z,954.9
